sensor_id;sensor_type;location;lat;lon;timestamp;pressure;altitude;pressure_sealevel;temperature;humidity
33153;BME280;19509;43.862;26.176;2023-04-27T00:01:59;100448.56;;;7.38;88.03
33153;BME280;19509;43.862;26.176;2023-04-27T00:04:25;100449.63;;;7.43;86.95
33153;BME280;19509;43.862;26.176;2023-04-27T00:06:50;100446.06;;;7.36;87.56
33153;BME280;19509;43.862;26.176;2023-04-27T00:09:16;100452.69;;;7.40;87.56
33153;BME280;19509;43.862;26.176;2023-04-27T00:11:42;100454.75;;;7.38;87.17
33153;BME280;19509;43.862;26.176;2023-04-27T00:14:07;100459.44;;;7.36;88.48
33153;BME280;19509;43.862;26.176;2023-04-27T00:16:33;100450.16;;;7.32;88.11
33153;BME280;19509;43.862;26.176;2023-04-27T00:18:58;100459.66;;;7.34;88.40
33153;BME280;19509;43.862;26.176;2023-04-27T00:21:25;100455.06;;;7.28;87.99
33153;BME280;19509;43.862;26.176;2023-04-27T00:23:51;100454.84;;;7.30;86.96
33153;BME280;19509;43.862;26.176;2023-04-27T00:26:16;100456.16;;;7.34;87.10
33153;BME280;19509;43.862;26.176;2023-04-27T00:28:42;100449.50;;;7.30;86.56
33153;BME280;19509;43.862;26.176;2023-04-27T00:31:07;100455.50;;;7.32;86.02
33153;BME280;19509;43.862;26.176;2023-04-27T00:33:33;100453.41;;;7.27;86.89
33153;BME280;19509;43.862;26.176;2023-04-27T00:35:59;100457.28;;;7.25;86.97
33153;BME280;19509;43.862;26.176;2023-04-27T00:38:26;100455.25;;;7.27;85.90
33153;BME280;19509;43.862;26.176;2023-04-27T00:41:00;100455.81;;;7.22;84.91
33153;BME280;19509;43.862;26.176;2023-04-27T00:43:25;100458.94;;;7.26;85.52
33153;BME280;19509;43.862;26.176;2023-04-27T00:45:51;100449.66;;;7.22;86.91
33153;BME280;19509;43.862;26.176;2023-04-27T00:48:16;100449.00;;;7.20;85.78
33153;BME280;19509;43.862;26.176;2023-04-27T00:50:42;100453.53;;;7.19;84.43
33153;BME280;19509;43.862;26.176;2023-04-27T00:53:07;100454.78;;;7.23;86.65
33153;BME280;19509;43.862;26.176;2023-04-27T00:55:33;100459.53;;;7.21;85.74
33153;BME280;19509;43.862;26.176;2023-04-27T00:57:58;100451.66;;;7.20;85.11
33153;BME280;19509;43.862;26.176;2023-04-27T01:00:24;100452.53;;;7.20;85.39
33153;BME280;19509;43.862;26.176;2023-04-27T01:02:51;100467.28;;;7.16;84.70
33153;BME280;19509;43.862;26.176;2023-04-27T01:05:18;100463.59;;;7.17;82.79
33153;BME280;19509;43.862;26.176;2023-04-27T01:07:43;100469.84;;;7.24;84.56
33153;BME280;19509;43.862;26.176;2023-04-27T01:10:09;100467.56;;;7.21;83.39
33153;BME280;19509;43.862;26.176;2023-04-27T01:12:35;100469.78;;;7.18;85.55
33153;BME280;19509;43.862;26.176;2023-04-27T01:15:00;100475.97;;;7.18;82.25
33153;BME280;19509;43.862;26.176;2023-04-27T01:17:26;100476.41;;;7.22;83.30
33153;BME280;19509;43.862;26.176;2023-04-27T01:19:51;100476.22;;;7.23;83.02
33153;BME280;19509;43.862;26.176;2023-04-27T01:22:22;100486.72;;;7.25;82.90
33153;BME280;19509;43.862;26.176;2023-04-27T01:24:48;100485.09;;;7.24;81.96
33153;BME280;19509;43.862;26.176;2023-04-27T01:27:13;100494.75;;;7.25;83.30
33153;BME280;19509;43.862;26.176;2023-04-27T01:29:39;100491.94;;;7.33;84.33
33153;BME280;19509;43.862;26.176;2023-04-27T01:32:04;100493.94;;;7.24;82.68
33153;BME280;19509;43.862;26.176;2023-04-27T01:34:30;100487.56;;;7.25;81.48
33153;BME280;19509;43.862;26.176;2023-04-27T01:36:55;100497.50;;;7.31;81.99
33153;BME280;19509;43.862;26.176;2023-04-27T01:39:21;100491.34;;;7.31;82.96
33153;BME280;19509;43.862;26.176;2023-04-27T01:41:47;100494.84;;;7.31;84.21
33153;BME280;19509;43.862;26.176;2023-04-27T01:44:12;100505.72;;;7.30;81.69
33153;BME280;19509;43.862;26.176;2023-04-27T01:46:38;100504.72;;;7.31;81.72
33153;BME280;19509;43.862;26.176;2023-04-27T01:49:03;100504.50;;;7.32;82.46
33153;BME280;19509;43.862;26.176;2023-04-27T01:51:29;100497.81;;;7.22;82.76
33153;BME280;19509;43.862;26.176;2023-04-27T01:53:55;100500.69;;;7.20;80.34
33153;BME280;19509;43.862;26.176;2023-04-27T01:56:21;100501.53;;;7.21;82.05
33153;BME280;19509;43.862;26.176;2023-04-27T01:58:46;100505.41;;;7.18;81.95
33153;BME280;19509;43.862;26.176;2023-04-27T02:01:12;100512.47;;;7.26;81.26
33153;BME280;19509;43.862;26.176;2023-04-27T02:03:37;100509.56;;;7.21;82.46
33153;BME280;19509;43.862;26.176;2023-04-27T02:06:03;100516.56;;;7.22;79.25
33153;BME280;19509;43.862;26.176;2023-04-27T02:08:28;100520.25;;;7.21;79.61
33153;BME280;19509;43.862;26.176;2023-04-27T02:10:54;100519.03;;;7.23;80.26
33153;BME280;19509;43.862;26.176;2023-04-27T02:13:20;100527.25;;;7.22;80.99
33153;BME280;19509;43.862;26.176;2023-04-27T02:15:46;100524.59;;;7.22;79.01
33153;BME280;19509;43.862;26.176;2023-04-27T02:18:11;100522.19;;;7.27;80.06
33153;BME280;19509;43.862;26.176;2023-04-27T02:20:38;100533.88;;;7.26;80.78
33153;BME280;19509;43.862;26.176;2023-04-27T02:23:04;100525.78;;;7.19;80.72
33153;BME280;19509;43.862;26.176;2023-04-27T02:25:29;100526.06;;;7.24;79.12
33153;BME280;19509;43.862;26.176;2023-04-27T02:27:54;100524.78;;;7.20;80.99
33153;BME280;19509;43.862;26.176;2023-04-27T02:30:20;100529.22;;;7.13;80.75
33153;BME280;19509;43.862;26.176;2023-04-27T02:32:45;100536.88;;;7.16;81.32
33153;BME280;19509;43.862;26.176;2023-04-27T02:35:12;100536.13;;;7.22;80.33
33153;BME280;19509;43.862;26.176;2023-04-27T02:37:37;100536.13;;;7.22;80.72
33153;BME280;19509;43.862;26.176;2023-04-27T02:40:03;100540.06;;;7.26;79.78
33153;BME280;19509;43.862;26.176;2023-04-27T02:42:32;100541.09;;;7.25;79.22
33153;BME280;19509;43.862;26.176;2023-04-27T02:44:57;100540.94;;;7.27;79.46
33153;BME280;19509;43.862;26.176;2023-04-27T02:47:22;100537.38;;;7.26;80.51
33153;BME280;19509;43.862;26.176;2023-04-27T02:49:48;100542.38;;;7.29;79.06
33153;BME280;19509;43.862;26.176;2023-04-27T02:52:14;100548.63;;;7.37;79.09
33153;BME280;19509;43.862;26.176;2023-04-27T02:54:40;100553.22;;;7.43;78.77
33153;BME280;19509;43.862;26.176;2023-04-27T02:57:05;100554.25;;;7.42;80.35
33153;BME280;19509;43.862;26.176;2023-04-27T02:59:31;100550.75;;;7.41;79.45
33153;BME280;19509;43.862;26.176;2023-04-27T03:01:57;100553.41;;;7.41;81.37
33153;BME280;19509;43.862;26.176;2023-04-27T03:04:22;100555.72;;;7.44;80.67
33153;BME280;19509;43.862;26.176;2023-04-27T03:06:48;100567.13;;;7.31;78.85
33153;BME280;19509;43.862;26.176;2023-04-27T03:09:13;100566.53;;;7.36;80.02
33153;BME280;19509;43.862;26.176;2023-04-27T03:11:39;100566.22;;;7.46;81.46
33153;BME280;19509;43.862;26.176;2023-04-27T03:14:04;100565.47;;;7.52;79.53
33153;BME280;19509;43.862;26.176;2023-04-27T03:16:31;100575.28;;;7.45;80.13
33153;BME280;19509;43.862;26.176;2023-04-27T03:18:56;100573.44;;;7.45;80.21
33153;BME280;19509;43.862;26.176;2023-04-27T03:21:22;100578.41;;;7.48;78.73
33153;BME280;19509;43.862;26.176;2023-04-27T03:23:47;100587.28;;;7.49;79.59
33153;BME280;19509;43.862;26.176;2023-04-27T03:26:13;100580.56;;;7.59;77.99
33153;BME280;19509;43.862;26.176;2023-04-27T03:28:39;100581.97;;;7.55;78.36
33153;BME280;19509;43.862;26.176;2023-04-27T03:31:07;100594.16;;;7.58;78.14
33153;BME280;19509;43.862;26.176;2023-04-27T03:33:33;100595.69;;;7.67;80.17
33153;BME280;19509;43.862;26.176;2023-04-27T03:36:00;100592.31;;;7.58;80.66
33153;BME280;19509;43.862;26.176;2023-04-27T03:38:27;100594.16;;;7.58;80.06
33153;BME280;19509;43.862;26.176;2023-04-27T03:40:53;100600.34;;;7.58;77.96
33153;BME280;19509;43.862;26.176;2023-04-27T03:43:19;100601.09;;;7.52;79.78
33153;BME280;19509;43.862;26.176;2023-04-27T03:45:45;100603.84;;;7.59;80.99
33153;BME280;19509;43.862;26.176;2023-04-27T03:48:12;100603.13;;;7.50;79.64
33153;BME280;19509;43.862;26.176;2023-04-27T03:50:37;100615.97;;;7.55;80.38
33153;BME280;19509;43.862;26.176;2023-04-27T03:53:02;100616.88;;;7.62;78.95
33153;BME280;19509;43.862;26.176;2023-04-27T03:55:28;100619.53;;;7.62;81.89
33153;BME280;19509;43.862;26.176;2023-04-27T03:57:54;100627.13;;;7.58;82.83
33153;BME280;19509;43.862;26.176;2023-04-27T04:00:19;100633.00;;;7.69;79.91
33153;BME280;19509;43.862;26.176;2023-04-27T04:02:45;100638.44;;;7.75;81.09
33153;BME280;19509;43.862;26.176;2023-04-27T04:05:11;100642.59;;;7.78;82.96
33153;BME280;19509;43.862;26.176;2023-04-27T04:07:39;100652.13;;;7.66;82.57
33153;BME280;19509;43.862;26.176;2023-04-27T04:10:06;100654.00;;;7.87;83.17
33153;BME280;19509;43.862;26.176;2023-04-27T04:12:32;100655.16;;;7.99;84.32
33153;BME280;19509;43.862;26.176;2023-04-27T04:14:57;100655.22;;;8.05;84.20
33153;BME280;19509;43.862;26.176;2023-04-27T04:17:23;100662.44;;;8.05;84.36
33153;BME280;19509;43.862;26.176;2023-04-27T04:19:49;100661.84;;;8.10;82.45
33153;BME280;19509;43.862;26.176;2023-04-27T04:22:14;100662.59;;;8.25;83.64
33153;BME280;19509;43.862;26.176;2023-04-27T04:24:39;100676.38;;;8.22;84.39
33153;BME280;19509;43.862;26.176;2023-04-27T04:27:06;100671.66;;;8.24;84.62
33153;BME280;19509;43.862;26.176;2023-04-27T04:29:31;100672.94;;;8.28;84.84
33153;BME280;19509;43.862;26.176;2023-04-27T04:31:57;100667.41;;;8.29;84.34
33153;BME280;19509;43.862;26.176;2023-04-27T04:34:22;100669.97;;;8.38;83.56
33153;BME280;19509;43.862;26.176;2023-04-27T04:36:48;100673.06;;;8.41;84.96
33153;BME280;19509;43.862;26.176;2023-04-27T04:39:17;100677.53;;;8.34;82.81
33153;BME280;19509;43.862;26.176;2023-04-27T04:41:46;100673.97;;;8.48;83.00
33153;BME280;19509;43.862;26.176;2023-04-27T04:44:14;100671.59;;;8.60;84.16
33153;BME280;19509;43.862;26.176;2023-04-27T04:46:40;100675.69;;;8.56;83.90
33153;BME280;19509;43.862;26.176;2023-04-27T04:49:06;100679.19;;;8.57;83.81
33153;BME280;19509;43.862;26.176;2023-04-27T04:51:31;100680.47;;;8.61;84.24
33153;BME280;19509;43.862;26.176;2023-04-27T04:53:57;100682.78;;;8.42;84.21
33153;BME280;19509;43.862;26.176;2023-04-27T04:56:22;100675.00;;;8.47;81.89
33153;BME280;19509;43.862;26.176;2023-04-27T04:58:48;100682.69;;;8.57;81.36
33153;BME280;19509;43.862;26.176;2023-04-27T05:01:13;100684.66;;;8.70;79.12
33153;BME280;19509;43.862;26.176;2023-04-27T05:03:39;100691.03;;;8.69;79.92
33153;BME280;19509;43.862;26.176;2023-04-27T05:06:05;100682.47;;;8.80;80.51
33153;BME280;19509;43.862;26.176;2023-04-27T05:08:30;100684.53;;;8.85;81.06
33153;BME280;19509;43.862;26.176;2023-04-27T05:10:56;100695.28;;;8.85;81.18
33153;BME280;19509;43.862;26.176;2023-04-27T05:13:21;100687.66;;;8.88;80.95
33153;BME280;19509;43.862;26.176;2023-04-27T05:15:49;100682.34;;;8.95;79.78
33153;BME280;19509;43.862;26.176;2023-04-27T05:18:15;100687.53;;;9.03;80.33
33153;BME280;19509;43.862;26.176;2023-04-27T05:20:40;100685.09;;;9.08;81.17
33153;BME280;19509;43.862;26.176;2023-04-27T05:23:06;100686.72;;;9.03;81.42
33153;BME280;19509;43.862;26.176;2023-04-27T05:25:32;100682.63;;;9.13;80.68
33153;BME280;19509;43.862;26.176;2023-04-27T05:27:58;100678.22;;;8.99;75.08
33153;BME280;19509;43.862;26.176;2023-04-27T05:30:23;100689.41;;;9.03;76.13
33153;BME280;19509;43.862;26.176;2023-04-27T05:32:49;100671.63;;;9.02;79.21
33153;BME280;19509;43.862;26.176;2023-04-27T05:35:14;100675.31;;;8.94;78.31
33153;BME280;19509;43.862;26.176;2023-04-27T05:37:40;100677.31;;;8.85;76.84
33153;BME280;19509;43.862;26.176;2023-04-27T05:40:06;100677.28;;;8.79;76.41
33153;BME280;19509;43.862;26.176;2023-04-27T05:42:35;100680.28;;;8.69;77.29
33153;BME280;19509;43.862;26.176;2023-04-27T05:45:01;100679.19;;;8.57;78.94
33153;BME280;19509;43.862;26.176;2023-04-27T05:47:27;100681.06;;;8.56;79.05
33153;BME280;19509;43.862;26.176;2023-04-27T05:49:53;100684.56;;;8.57;75.99
33153;BME280;19509;43.862;26.176;2023-04-27T05:52:19;100687.72;;;8.67;78.56
33153;BME280;19509;43.862;26.176;2023-04-27T05:54:48;100688.00;;;8.79;77.12
33153;BME280;19509;43.862;26.176;2023-04-27T05:57:14;100693.28;;;8.65;73.91
33153;BME280;19509;43.862;26.176;2023-04-27T05:59:41;100700.06;;;8.61;73.60
33153;BME280;19509;43.862;26.176;2023-04-27T06:02:07;100698.13;;;8.76;76.66
33153;BME280;19509;43.862;26.176;2023-04-27T06:04:33;100697.31;;;8.83;74.53
33153;BME280;19509;43.862;26.176;2023-04-27T06:07:00;100699.13;;;9.04;76.87
33153;BME280;19509;43.862;26.176;2023-04-27T06:09:29;100710.78;;;9.17;75.59
33153;BME280;19509;43.862;26.176;2023-04-27T06:11:55;100705.06;;;9.40;75.46
33153;BME280;19509;43.862;26.176;2023-04-27T06:14:22;100708.25;;;9.57;73.58
33153;BME280;19509;43.862;26.176;2023-04-27T06:16:48;100705.97;;;9.54;72.37
33153;BME280;19509;43.862;26.176;2023-04-27T06:19:14;100707.69;;;9.68;73.15
33153;BME280;19509;43.862;26.176;2023-04-27T06:21:39;100712.66;;;9.65;71.84
33153;BME280;19509;43.862;26.176;2023-04-27T06:24:05;100714.13;;;9.81;70.92
33153;BME280;19509;43.862;26.176;2023-04-27T06:26:31;100714.75;;;9.76;68.94
33153;BME280;19509;43.862;26.176;2023-04-27T06:28:56;100714.28;;;9.59;66.83
33153;BME280;19509;43.862;26.176;2023-04-27T06:31:22;100713.66;;;9.64;68.20
33153;BME280;19509;43.862;26.176;2023-04-27T06:33:47;100711.03;;;9.84;70.25
33153;BME280;19509;43.862;26.176;2023-04-27T06:36:13;100720.38;;;10.01;70.43
33153;BME280;19509;43.862;26.176;2023-04-27T06:38:39;100715.66;;;10.03;68.83
33153;BME280;19509;43.862;26.176;2023-04-27T06:41:04;100710.06;;;10.11;67.68
33153;BME280;19509;43.862;26.176;2023-04-27T06:43:30;100719.56;;;10.07;69.09
33153;BME280;19509;43.862;26.176;2023-04-27T06:45:55;100714.22;;;10.14;69.87
33153;BME280;19509;43.862;26.176;2023-04-27T06:48:21;100715.38;;;9.91;69.79
33153;BME280;19509;43.862;26.176;2023-04-27T06:50:47;100714.13;;;9.81;70.45
33153;BME280;19509;43.862;26.176;2023-04-27T06:53:12;100719.13;;;9.97;69.92
33153;BME280;19509;43.862;26.176;2023-04-27T06:55:38;100713.97;;;9.95;70.86
33153;BME280;19509;43.862;26.176;2023-04-27T06:58:04;100718.88;;;9.72;71.46
33153;BME280;19509;43.862;26.176;2023-04-27T07:00:30;100717.44;;;9.76;68.64
33153;BME280;19509;43.862;26.176;2023-04-27T07:02:56;100718.44;;;9.68;67.50
33153;BME280;19509;43.862;26.176;2023-04-27T07:05:21;100721.06;;;9.55;66.93
33153;BME280;19509;43.862;26.176;2023-04-27T07:07:47;100727.28;;;9.56;68.34
33153;BME280;19509;43.862;26.176;2023-04-27T07:10:12;100728.78;;;9.71;71.39
33153;BME280;19509;43.862;26.176;2023-04-27T07:12:38;100718.81;;;9.59;69.03
33153;BME280;19509;43.862;26.176;2023-04-27T07:15:05;100728.25;;;10.03;68.47
33153;BME280;19509;43.862;26.176;2023-04-27T07:17:34;100728.41;;;9.88;67.76
33153;BME280;19509;43.862;26.176;2023-04-27T07:20:03;100730.09;;;9.89;67.56
33153;BME280;19509;43.862;26.176;2023-04-27T07:22:30;100728.00;;;9.84;70.39
33153;BME280;19509;43.862;26.176;2023-04-27T07:24:56;100726.38;;;9.90;69.01
33153;BME280;19509;43.862;26.176;2023-04-27T07:27:22;100726.38;;;9.97;70.90
33153;BME280;19509;43.862;26.176;2023-04-27T07:29:48;100725.72;;;9.88;69.14
33153;BME280;19509;43.862;26.176;2023-04-27T07:32:14;100740.78;;;9.69;70.34
33153;BME280;19509;43.862;26.176;2023-04-27T07:34:40;100737.44;;;9.67;66.92
33153;BME280;19509;43.862;26.176;2023-04-27T07:37:06;100735.13;;;9.57;66.53
33153;BME280;19509;43.862;26.176;2023-04-27T07:39:32;100736.16;;;9.56;72.63
33153;BME280;19509;43.862;26.176;2023-04-27T07:41:58;100745.16;;;9.35;74.76
33153;BME280;19509;43.862;26.176;2023-04-27T07:44:23;100740.09;;;9.19;71.76
33153;BME280;19509;43.862;26.176;2023-04-27T07:46:50;100747.81;;;9.29;70.47
33153;BME280;19509;43.862;26.176;2023-04-27T07:49:18;100755.16;;;9.48;73.76
33153;BME280;19509;43.862;26.176;2023-04-27T07:51:44;100753.75;;;9.59;71.02
33153;BME280;19509;43.862;26.176;2023-04-27T07:54:10;100756.16;;;9.88;73.92
33153;BME280;19509;43.862;26.176;2023-04-27T07:56:36;100753.94;;;10.18;65.83
33153;BME280;19509;43.862;26.176;2023-04-27T07:59:01;100756.72;;;9.84;65.65
33153;BME280;19509;43.862;26.176;2023-04-27T08:01:27;100759.78;;;10.29;70.56
33153;BME280;19509;43.862;26.176;2023-04-27T08:03:52;100755.88;;;10.38;67.71
33153;BME280;19509;43.862;26.176;2023-04-27T08:06:18;100763.75;;;10.46;65.86
33153;BME280;19509;43.862;26.176;2023-04-27T08:08:44;100757.50;;;10.32;64.64
33153;BME280;19509;43.862;26.176;2023-04-27T08:11:10;100764.09;;;10.16;64.82
33153;BME280;19509;43.862;26.176;2023-04-27T08:13:36;100768.41;;;10.17;67.19
33153;BME280;19509;43.862;26.176;2023-04-27T08:16:02;100762.84;;;10.19;68.20
33153;BME280;19509;43.862;26.176;2023-04-27T08:18:27;100768.41;;;10.11;68.04
33153;BME280;19509;43.862;26.176;2023-04-27T08:20:53;100759.25;;;9.92;65.22
33153;BME280;19509;43.862;26.176;2023-04-27T08:23:19;100766.97;;;10.22;66.38
33153;BME280;19509;43.862;26.176;2023-04-27T08:25:45;100768.88;;;10.28;63.05
33153;BME280;19509;43.862;26.176;2023-04-27T08:28:12;100761.53;;;10.02;62.48
33153;BME280;19509;43.862;26.176;2023-04-27T08:30:38;100760.63;;;10.29;63.76
33153;BME280;19509;43.862;26.176;2023-04-27T08:33:03;100763.31;;;10.49;63.70
33153;BME280;19509;43.862;26.176;2023-04-27T08:35:29;100759.72;;;10.22;61.31
33153;BME280;19509;43.862;26.176;2023-04-27T08:37:54;100760.03;;;10.60;62.57
33153;BME280;19509;43.862;26.176;2023-04-27T08:40:20;100759.81;;;10.62;64.95
33153;BME280;19509;43.862;26.176;2023-04-27T08:42:56;100757.13;;;10.55;64.99
33153;BME280;19509;43.862;26.176;2023-04-27T08:45:23;100757.34;;;10.60;66.04
33153;BME280;19509;43.862;26.176;2023-04-27T08:47:49;100764.38;;;10.61;62.81
33153;BME280;19509;43.862;26.176;2023-04-27T08:50:15;100762.09;;;10.52;64.75
33153;BME280;19509;43.862;26.176;2023-04-27T08:52:45;100764.34;;;10.41;63.04
33153;BME280;19509;43.862;26.176;2023-04-27T08:55:11;100755.91;;;10.64;64.08
33153;BME280;19509;43.862;26.176;2023-04-27T08:57:37;100759.81;;;10.55;62.25
33153;BME280;19509;43.862;26.176;2023-04-27T09:00:03;100763.13;;;10.57;60.66
33153;BME280;19509;43.862;26.176;2023-04-27T09:02:45;100769.13;;;10.99;63.44
33153;BME280;19509;43.862;26.176;2023-04-27T09:05:15;100761.03;;;11.19;61.43
33153;BME280;19509;43.862;26.176;2023-04-27T09:07:41;100751.47;;;11.36;62.88
33153;BME280;19509;43.862;26.176;2023-04-27T09:10:07;100756.31;;;11.73;60.51
33153;BME280;19509;43.862;26.176;2023-04-27T09:12:32;100749.31;;;11.65;60.67
33153;BME280;19509;43.862;26.176;2023-04-27T09:15:00;100752.34;;;12.27;60.07
33153;BME280;19509;43.862;26.176;2023-04-27T09:17:28;100746.53;;;12.55;56.51
33153;BME280;19509;43.862;26.176;2023-04-27T09:20:07;100741.84;;;12.69;56.69
33153;BME280;19509;43.862;26.176;2023-04-27T09:22:46;100748.53;;;12.91;56.31
33153;BME280;19509;43.862;26.176;2023-04-27T09:25:30;100738.47;;;12.73;56.75
33153;BME280;19509;43.862;26.176;2023-04-27T09:27:58;100742.78;;;12.81;55.71
33153;BME280;19509;43.862;26.176;2023-04-27T09:30:24;100744.19;;;12.34;59.02
33153;BME280;19509;43.862;26.176;2023-04-27T09:32:51;100740.06;;;12.31;54.52
33153;BME280;19509;43.862;26.176;2023-04-27T09:35:25;100737.56;;;12.61;58.81
33153;BME280;19509;43.862;26.176;2023-04-27T09:37:51;100732.00;;;12.81;60.47
33153;BME280;19509;43.862;26.176;2023-04-27T09:40:19;100730.28;;;12.37;56.88
33153;BME280;19509;43.862;26.176;2023-04-27T09:42:48;100735.94;;;11.83;56.37
33153;BME280;19509;43.862;26.176;2023-04-27T09:45:14;100721.88;;;11.75;57.26
33153;BME280;19509;43.862;26.176;2023-04-27T09:47:41;100734.16;;;12.09;62.26
33153;BME280;19509;43.862;26.176;2023-04-27T09:50:08;100728.16;;;12.70;59.71
33153;BME280;19509;43.862;26.176;2023-04-27T09:52:35;100727.81;;;13.47;58.75
33153;BME280;19509;43.862;26.176;2023-04-27T09:55:02;100725.28;;;13.82;56.89
33153;BME280;19509;43.862;26.176;2023-04-27T09:57:36;100735.31;;;13.45;55.64
33153;BME280;19509;43.862;26.176;2023-04-27T10:00:29;100730.34;;;13.60;56.50
33153;BME280;19509;43.862;26.176;2023-04-27T10:03:30;100721.28;;;14.03;54.98
33153;BME280;19509;43.862;26.176;2023-04-27T10:08:59;100729.56;;;13.71;56.42
33153;BME280;19509;43.862;26.176;2023-04-27T10:11:47;100725.25;;;14.01;57.46
33153;BME280;19509;43.862;26.176;2023-04-27T10:14:20;100721.97;;;14.40;54.19
33153;BME280;19509;43.862;26.176;2023-04-27T10:16:55;100716.44;;;14.05;54.11
33153;BME280;19509;43.862;26.176;2023-04-27T10:19:21;100728.16;;;13.99;54.41
33153;BME280;19509;43.862;26.176;2023-04-27T10:22:00;100720.75;;;14.36;56.10
33153;BME280;19509;43.862;26.176;2023-04-27T10:24:36;100724.25;;;15.26;54.10
33153;BME280;19509;43.862;26.176;2023-04-27T10:27:10;100721.63;;;15.95;51.18
33153;BME280;19509;43.862;26.176;2023-04-27T10:29:43;100724.63;;;16.27;48.80
33153;BME280;19509;43.862;26.176;2023-04-27T10:32:25;100726.78;;;15.79;50.53
33153;BME280;19509;43.862;26.176;2023-04-27T10:35:02;100721.56;;;15.26;52.46
33153;BME280;19509;43.862;26.176;2023-04-27T10:37:39;100730.81;;;15.42;52.47
33153;BME280;19509;43.862;26.176;2023-04-27T10:40:10;100731.41;;;15.44;51.15
33153;BME280;19509;43.862;26.176;2023-04-27T10:42:40;100729.59;;;15.61;51.94
33153;BME280;19509;43.862;26.176;2023-04-27T10:45:06;100728.75;;;15.20;51.76
33153;BME280;19509;43.862;26.176;2023-04-27T10:47:43;100731.03;;;15.52;53.03
33153;BME280;19509;43.862;26.176;2023-04-27T10:50:11;100728.75;;;15.32;51.35
33153;BME280;19509;43.862;26.176;2023-04-27T10:52:41;100730.28;;;15.04;53.55
33153;BME280;19509;43.862;26.176;2023-04-27T10:55:21;100732.97;;;14.81;52.71
33153;BME280;19509;43.862;26.176;2023-04-27T10:57:52;100738.34;;;14.15;51.52
33153;BME280;19509;43.862;26.176;2023-04-27T11:00:32;100743.63;;;13.62;55.98
33153;BME280;19509;43.862;26.176;2023-04-27T11:05:38;100735.31;;;13.63;56.32
33153;BME280;19509;43.862;26.176;2023-04-27T11:08:09;100733.50;;;14.06;57.76
33153;BME280;19509;43.862;26.176;2023-04-27T11:10:53;100725.38;;;14.48;57.57
33153;BME280;19509;43.862;26.176;2023-04-27T11:13:20;100728.34;;;14.16;56.87
33153;BME280;19509;43.862;26.176;2023-04-27T11:15:51;100736.81;;;14.08;56.73
33153;BME280;19509;43.862;26.176;2023-04-27T11:18:18;100723.25;;;14.50;57.73
33153;BME280;19509;43.862;26.176;2023-04-27T11:20:46;100727.72;;;14.02;56.40
33153;BME280;19509;43.862;26.176;2023-04-27T11:23:26;100723.56;;;14.30;53.62
33153;BME280;19509;43.862;26.176;2023-04-27T11:25:53;100724.03;;;14.69;53.82
33153;BME280;19509;43.862;26.176;2023-04-27T11:28:20;100721.53;;;14.55;57.64
33153;BME280;19509;43.862;26.176;2023-04-27T11:30:46;100716.38;;;15.01;52.14
33153;BME280;19509;43.862;26.176;2023-04-27T11:33:13;100715.91;;;14.92;55.94
33153;BME280;19509;43.862;26.176;2023-04-27T11:35:39;100722.72;;;15.30;54.72
33153;BME280;19509;43.862;26.176;2023-04-27T11:38:04;100711.56;;;15.55;54.80
33153;BME280;19509;43.862;26.176;2023-04-27T11:40:30;100714.31;;;15.67;52.01
33153;BME280;19509;43.862;26.176;2023-04-27T11:42:57;100710.59;;;15.21;52.32
33153;BME280;19509;43.862;26.176;2023-04-27T11:45:25;100710.47;;;15.16;53.50
33153;BME280;19509;43.862;26.176;2023-04-27T11:47:52;100707.19;;;15.25;54.74
33153;BME280;19509;43.862;26.176;2023-04-27T11:50:17;100700.97;;;15.53;52.37
33153;BME280;19509;43.862;26.176;2023-04-27T11:52:47;100689.97;;;16.00;52.12
33153;BME280;19509;43.862;26.176;2023-04-27T11:55:13;100694.22;;;16.59;50.61
33153;BME280;19509;43.862;26.176;2023-04-27T11:57:40;100687.53;;;17.22;52.25
33153;BME280;19509;43.862;26.176;2023-04-27T12:00:08;100698.00;;;17.52;48.86
33153;BME280;19509;43.862;26.176;2023-04-27T12:02:35;100691.50;;;17.53;49.97
33153;BME280;19509;43.862;26.176;2023-04-27T12:05:02;100686.22;;;17.02;49.41
33153;BME280;19509;43.862;26.176;2023-04-27T12:07:28;100692.06;;;16.27;52.23
33153;BME280;19509;43.862;26.176;2023-04-27T12:09:53;100685.06;;;16.14;52.57
33153;BME280;19509;43.862;26.176;2023-04-27T12:12:19;100687.28;;;16.17;51.84
33153;BME280;19509;43.862;26.176;2023-04-27T12:14:47;100686.25;;;16.52;50.63
33153;BME280;19509;43.862;26.176;2023-04-27T12:17:13;100680.22;;;16.50;47.16
33153;BME280;19509;43.862;26.176;2023-04-27T12:19:38;100679.50;;;16.88;46.23
33153;BME280;19509;43.862;26.176;2023-04-27T12:22:04;100676.59;;;17.17;48.65
33153;BME280;19509;43.862;26.176;2023-04-27T12:24:30;100692.13;;;17.60;48.85
33153;BME280;19509;43.862;26.176;2023-04-27T12:26:56;100674.06;;;17.10;47.81
33153;BME280;19509;43.862;26.176;2023-04-27T12:29:22;100676.59;;;15.82;46.49
33153;BME280;19509;43.862;26.176;2023-04-27T12:31:49;100676.31;;;15.67;45.98
33153;BME280;19509;43.862;26.176;2023-04-27T12:34:15;100674.25;;;15.33;48.50
33153;BME280;19509;43.862;26.176;2023-04-27T12:36:40;100675.06;;;15.46;49.85
33153;BME280;19509;43.862;26.176;2023-04-27T12:39:14;100666.94;;;16.03;47.18
33153;BME280;19509;43.862;26.176;2023-04-27T12:41:43;100665.47;;;16.12;48.88
33153;BME280;19509;43.862;26.176;2023-04-27T12:44:09;100663.34;;;16.31;49.95
33153;BME280;19509;43.862;26.176;2023-04-27T12:46:36;100667.28;;;15.49;50.92
33153;BME280;19509;43.862;26.176;2023-04-27T12:49:01;100655.81;;;15.47;49.29
33153;BME280;19509;43.862;26.176;2023-04-27T12:51:27;100660.00;;;15.95;49.44